sensor_id;sensor_type;location;lat;lon;timestamp;P1;durP1;ratioP1;P2;durP2;ratioP2
71104;SDS011;58760;48.716;8.962;2022-07-10T00:02:05;3.67;;;1.90;;
71104;SDS011;58760;48.716;8.962;2022-07-10T00:04:30;5.40;;;2.50;;
71104;SDS011;58760;48.716;8.962;2022-07-10T00:06:55;4.60;;;2.22;;
71104;SDS011;58760;48.716;8.962;2022-07-10T00:09:23;4.90;;;2.42;;
71104;SDS011;58760;48.716;8.962;2022-07-10T00:11:49;4.68;;;2.47;;
71104;SDS011;58760;48.716;8.962;2022-07-10T00:14:14;4.85;;;2.35;;
71104;SDS011;58760;48.716;8.962;2022-07-10T00:16:40;5.75;;;2.60;;
71104;SDS011;58760;48.716;8.962;2022-07-10T00:19:06;5.50;;;2.75;;
71104;SDS011;58760;48.716;8.962;2022-07-10T00:21:31;5.13;;;2.78;;
71104;SDS011;58760;48.716;8.962;2022-07-10T00:23:56;5.60;;;2.58;;
71104;SDS011;58760;48.716;8.962;2022-07-10T00:26:22;7.97;;;2.50;;
71104;SDS011;58760;48.716;8.962;2022-07-10T00:28:47;4.63;;;2.30;;
71104;SDS011;58760;48.716;8.962;2022-07-10T00:31:12;8.57;;;2.63;;
71104;SDS011;58760;48.716;8.962;2022-07-10T00:33:38;5.93;;;2.28;;
71104;SDS011;58760;48.716;8.962;2022-07-10T00:36:06;5.28;;;2.50;;
71104;SDS011;58760;48.716;8.962;2022-07-10T00:38:33;4.90;;;2.10;;
71104;SDS011;58760;48.716;8.962;2022-07-10T00:40:58;5.20;;;2.45;;
71104;SDS011;58760;48.716;8.962;2022-07-10T00:43:24;4.28;;;2.17;;
71104;SDS011;58760;48.716;8.962;2022-07-10T00:45:49;6.43;;;2.60;;
71104;SDS011;58760;48.716;8.962;2022-07-10T00:48:15;5.07;;;2.30;;
71104;SDS011;58760;48.716;8.962;2022-07-10T00:50:42;4.40;;;2.33;;
71104;SDS011;58760;48.716;8.962;2022-07-10T00:53:10;5.75;;;2.90;;
71104;SDS011;58760;48.716;8.962;2022-07-10T00:55:38;4.50;;;2.42;;
71104;SDS011;58760;48.716;8.962;2022-07-10T00:58:06;6.70;;;2.70;;
71104;SDS011;58760;48.716;8.962;2022-07-10T01:00:32;5.50;;;2.55;;
71104;SDS011;58760;48.716;8.962;2022-07-10T01:02:58;6.07;;;3.00;;
71104;SDS011;58760;48.716;8.962;2022-07-10T01:05:23;5.80;;;2.70;;
71104;SDS011;58760;48.716;8.962;2022-07-10T01:07:49;6.18;;;2.75;;
71104;SDS011;58760;48.716;8.962;2022-07-10T01:10:14;6.13;;;2.97;;
71104;SDS011;58760;48.716;8.962;2022-07-10T01:12:39;5.93;;;3.15;;
71104;SDS011;58760;48.716;8.962;2022-07-10T01:15:05;6.22;;;2.85;;
71104;SDS011;58760;48.716;8.962;2022-07-10T01:17:32;6.07;;;3.03;;
71104;SDS011;58760;48.716;8.962;2022-07-10T01:19:57;8.85;;;3.45;;
71104;SDS011;58760;48.716;8.962;2022-07-10T01:22:23;7.53;;;3.53;;
71104;SDS011;58760;48.716;8.962;2022-07-10T01:24:48;7.53;;;3.25;;
71104;SDS011;58760;48.716;8.962;2022-07-10T01:27:14;6.10;;;3.42;;
71104;SDS011;58760;48.716;8.962;2022-07-10T01:29:39;8.98;;;4.30;;
71104;SDS011;58760;48.716;8.962;2022-07-10T01:32:04;7.47;;;4.05;;
71104;SDS011;58760;48.716;8.962;2022-07-10T01:34:30;7.57;;;4.60;;
71104;SDS011;58760;48.716;8.962;2022-07-10T01:36:55;6.90;;;4.20;;
71104;SDS011;58760;48.716;8.962;2022-07-10T01:39:21;7.20;;;4.13;;
71104;SDS011;58760;48.716;8.962;2022-07-10T01:41:46;8.25;;;4.15;;
71104;SDS011;58760;48.716;8.962;2022-07-10T01:44:12;6.95;;;4.10;;
71104;SDS011;58760;48.716;8.962;2022-07-10T01:46:44;7.90;;;4.47;;
71104;SDS011;58760;48.716;8.962;2022-07-10T01:49:10;7.15;;;4.70;;
71104;SDS011;58760;48.716;8.962;2022-07-10T01:51:36;7.75;;;4.65;;
71104;SDS011;58760;48.716;8.962;2022-07-10T01:54:01;10.15;;;4.43;;
71104;SDS011;58760;48.716;8.962;2022-07-10T01:56:27;7.63;;;4.82;;
71104;SDS011;58760;48.716;8.962;2022-07-10T01:58:52;9.30;;;5.03;;
71104;SDS011;58760;48.716;8.962;2022-07-10T02:01:17;8.90;;;5.53;;
71104;SDS011;58760;48.716;8.962;2022-07-10T02:03:43;7.90;;;5.50;;
71104;SDS011;58760;48.716;8.962;2022-07-10T02:06:27;9.20;;;5.43;;
71104;SDS011;58760;48.716;8.962;2022-07-10T02:08:52;10.75;;;6.18;;
71104;SDS011;58760;48.716;8.962;2022-07-10T02:11:18;11.00;;;5.40;;
71104;SDS011;58760;48.716;8.962;2022-07-10T02:13:43;12.02;;;6.78;;
71104;SDS011;58760;48.716;8.962;2022-07-10T02:16:09;9.05;;;6.13;;
71104;SDS011;58760;48.716;8.962;2022-07-10T02:18:35;12.13;;;7.15;;
71104;SDS011;58760;48.716;8.962;2022-07-10T02:21:01;11.73;;;7.68;;
71104;SDS011;58760;48.716;8.962;2022-07-10T02:23:27;11.18;;;7.53;;
71104;SDS011;58760;48.716;8.962;2022-07-10T02:25:53;11.10;;;7.57;;
71104;SDS011;58760;48.716;8.962;2022-07-10T02:28:18;13.80;;;8.40;;
71104;SDS011;58760;48.716;8.962;2022-07-10T02:30:44;16.17;;;10.43;;
71104;SDS011;58760;48.716;8.962;2022-07-10T02:33:09;14.30;;;9.52;;
71104;SDS011;58760;48.716;8.962;2022-07-10T02:35:34;14.43;;;9.38;;
71104;SDS011;58760;48.716;8.962;2022-07-10T02:38:00;12.07;;;9.25;;
71104;SDS011;58760;48.716;8.962;2022-07-10T02:40:25;16.52;;;10.18;;
71104;SDS011;58760;48.716;8.962;2022-07-10T02:42:51;16.38;;;9.13;;
71104;SDS011;58760;48.716;8.962;2022-07-10T02:45:16;13.77;;;8.90;;
71104;SDS011;58760;48.716;8.962;2022-07-10T02:47:41;13.27;;;9.32;;
71104;SDS011;58760;48.716;8.962;2022-07-10T02:50:07;13.13;;;8.05;;
71104;SDS011;58760;48.716;8.962;2022-07-10T02:52:33;12.05;;;9.00;;
71104;SDS011;58760;48.716;8.962;2022-07-10T02:54:58;12.00;;;8.50;;
71104;SDS011;58760;48.716;8.962;2022-07-10T02:57:24;10.68;;;7.75;;
71104;SDS011;58760;48.716;8.962;2022-07-10T02:59:49;11.25;;;8.35;;
71104;SDS011;58760;48.716;8.962;2022-07-10T03:02:15;14.95;;;9.82;;
71104;SDS011;58760;48.716;8.962;2022-07-10T03:04:40;11.25;;;9.10;;
71104;SDS011;58760;48.716;8.962;2022-07-10T03:07:06;11.80;;;8.45;;
71104;SDS011;58760;48.716;8.962;2022-07-10T03:09:32;12.45;;;9.05;;
71104;SDS011;58760;48.716;8.962;2022-07-10T03:11:57;14.57;;;9.10;;
71104;SDS011;58760;48.716;8.962;2022-07-10T03:14:22;11.90;;;8.85;;
71104;SDS011;58760;48.716;8.962;2022-07-10T03:16:48;13.23;;;8.43;;
71104;SDS011;58760;48.716;8.962;2022-07-10T03:19:13;13.02;;;9.48;;
71104;SDS011;58760;48.716;8.962;2022-07-10T03:21:39;15.50;;;10.25;;
71104;SDS011;58760;48.716;8.962;2022-07-10T03:24:04;13.82;;;9.95;;
71104;SDS011;58760;48.716;8.962;2022-07-10T03:26:31;14.70;;;10.20;;
71104;SDS011;58760;48.716;8.962;2022-07-10T03:28:56;14.15;;;9.85;;
71104;SDS011;58760;48.716;8.962;2022-07-10T03:31:22;14.35;;;9.20;;
71104;SDS011;58760;48.716;8.962;2022-07-10T03:33:47;15.32;;;10.57;;
71104;SDS011;58760;48.716;8.962;2022-07-10T03:36:13;12.85;;;9.98;;
71104;SDS011;58760;48.716;8.962;2022-07-10T03:38:38;16.63;;;11.27;;
71104;SDS011;58760;48.716;8.962;2022-07-10T03:41:04;15.00;;;10.63;;
71104;SDS011;58760;48.716;8.962;2022-07-10T03:43:30;14.40;;;10.07;;
71104;SDS011;58760;48.716;8.962;2022-07-10T03:45:56;13.27;;;10.45;;
71104;SDS011;58760;48.716;8.962;2022-07-10T03:48:22;12.80;;;9.93;;
71104;SDS011;58760;48.716;8.962;2022-07-10T03:50:49;15.65;;;10.25;;
71104;SDS011;58760;48.716;8.962;2022-07-10T03:53:15;12.30;;;9.13;;
71104;SDS011;58760;48.716;8.962;2022-07-10T03:55:42;14.43;;;9.40;;
71104;SDS011;58760;48.716;8.962;2022-07-10T03:58:07;11.73;;;8.48;;
71104;SDS011;58760;48.716;8.962;2022-07-10T04:00:33;13.73;;;9.00;;
71104;SDS011;58760;48.716;8.962;2022-07-10T04:03:04;12.55;;;9.07;;
71104;SDS011;58760;48.716;8.962;2022-07-10T04:05:31;15.48;;;9.00;;
71104;SDS011;58760;48.716;8.962;2022-07-10T04:07:57;12.13;;;8.45;;
71104;SDS011;58760;48.716;8.962;2022-07-10T04:10:24;13.60;;;8.55;;
71104;SDS011;58760;48.716;8.962;2022-07-10T04:12:50;11.77;;;8.00;;
71104;SDS011;58760;48.716;8.962;2022-07-10T04:15:16;12.48;;;7.78;;
71104;SDS011;58760;48.716;8.962;2022-07-10T04:17:42;12.63;;;8.15;;
71104;SDS011;58760;48.716;8.962;2022-07-10T04:20:08;14.80;;;8.48;;
71104;SDS011;58760;48.716;8.962;2022-07-10T04:22:34;14.32;;;7.60;;
71104;SDS011;58760;48.716;8.962;2022-07-10T04:25:00;13.23;;;6.32;;
71104;SDS011;58760;48.716;8.962;2022-07-10T04:27:25;16.02;;;7.25;;
71104;SDS011;58760;48.716;8.962;2022-07-10T04:29:51;10.23;;;6.75;;
71104;SDS011;58760;48.716;8.962;2022-07-10T04:32:16;10.70;;;6.78;;
71104;SDS011;58760;48.716;8.962;2022-07-10T04:34:41;10.13;;;6.60;;
71104;SDS011;58760;48.716;8.962;2022-07-10T04:37:07;13.18;;;6.13;;
71104;SDS011;58760;48.716;8.962;2022-07-10T04:39:34;13.88;;;5.70;;
71104;SDS011;58760;48.716;8.962;2022-07-10T04:42:00;10.88;;;5.80;;
71104;SDS011;58760;48.716;8.962;2022-07-10T04:44:25;13.10;;;5.80;;
71104;SDS011;58760;48.716;8.962;2022-07-10T04:46:51;8.68;;;4.57;;
71104;SDS011;58760;48.716;8.962;2022-07-10T04:49:16;9.25;;;4.60;;
71104;SDS011;58760;48.716;8.962;2022-07-10T04:51:41;7.10;;;4.20;;
71104;SDS011;58760;48.716;8.962;2022-07-10T04:54:07;9.95;;;4.43;;
71104;SDS011;58760;48.716;8.962;2022-07-10T04:56:32;9.35;;;4.38;;
71104;SDS011;58760;48.716;8.962;2022-07-10T04:58:57;10.07;;;4.85;;
71104;SDS011;58760;48.716;8.962;2022-07-10T05:01:23;9.85;;;4.38;;
71104;SDS011;58760;48.716;8.962;2022-07-10T05:03:48;9.95;;;4.28;;
71104;SDS011;58760;48.716;8.962;2022-07-10T05:06:14;17.05;;;4.03;;
71104;SDS011;58760;48.716;8.962;2022-07-10T05:08:39;9.93;;;4.25;;
71104;SDS011;58760;48.716;8.962;2022-07-10T05:11:04;8.43;;;4.25;;
71104;SDS011;58760;48.716;8.962;2022-07-10T05:13:30;10.57;;;4.70;;
71104;SDS011;58760;48.716;8.962;2022-07-10T05:15:55;8.20;;;3.67;;
71104;SDS011;58760;48.716;8.962;2022-07-10T05:18:21;10.65;;;3.83;;
71104;SDS011;58760;48.716;8.962;2022-07-10T05:20:46;7.05;;;3.60;;
71104;SDS011;58760;48.716;8.962;2022-07-10T05:23:14;8.13;;;3.63;;
71104;SDS011;58760;48.716;8.962;2022-07-10T05:25:41;8.15;;;3.80;;
71104;SDS011;58760;48.716;8.962;2022-07-10T05:28:06;10.18;;;3.90;;
71104;SDS011;58760;48.716;8.962;2022-07-10T05:30:32;7.28;;;3.33;;
71104;SDS011;58760;48.716;8.962;2022-07-10T05:32:58;11.27;;;3.45;;
71104;SDS011;58760;48.716;8.962;2022-07-10T05:35:24;10.48;;;3.40;;
71104;SDS011;58760;48.716;8.962;2022-07-10T05:37:51;7.38;;;3.22;;
71104;SDS011;58760;48.716;8.962;2022-07-10T05:40:17;6.72;;;2.72;;
71104;SDS011;58760;48.716;8.962;2022-07-10T05:42:43;8.18;;;3.17;;
71104;SDS011;58760;48.716;8.962;2022-07-10T05:45:09;8.23;;;2.72;;
71104;SDS011;58760;48.716;8.962;2022-07-10T05:47:35;8.35;;;2.80;;
71104;SDS011;58760;48.716;8.962;2022-07-10T05:50:01;6.35;;;2.63;;
71104;SDS011;58760;48.716;8.962;2022-07-10T05:52:27;8.30;;;2.85;;
71104;SDS011;58760;48.716;8.962;2022-07-10T05:54:52;9.20;;;2.70;;
71104;SDS011;58760;48.716;8.962;2022-07-10T05:57:18;6.65;;;2.70;;
71104;SDS011;58760;48.716;8.962;2022-07-10T05:59:44;8.18;;;2.55;;
71104;SDS011;58760;48.716;8.962;2022-07-10T06:02:09;8.30;;;2.25;;
71104;SDS011;58760;48.716;8.962;2022-07-10T06:04:34;7.88;;;2.15;;
71104;SDS011;58760;48.716;8.962;2022-07-10T06:07:00;7.32;;;1.95;;
71104;SDS011;58760;48.716;8.962;2022-07-10T06:09:25;6.10;;;2.20;;
71104;SDS011;58760;48.716;8.962;2022-07-10T06:11:51;5.20;;;1.98;;
71104;SDS011;58760;48.716;8.962;2022-07-10T06:14:16;6.55;;;2.25;;
71104;SDS011;58760;48.716;8.962;2022-07-10T06:16:41;6.25;;;2.05;;
71104;SDS011;58760;48.716;8.962;2022-07-10T06:19:07;6.95;;;1.77;;
71104;SDS011;58760;48.716;8.962;2022-07-10T06:21:32;6.80;;;1.95;;
71104;SDS011;58760;48.716;8.962;2022-07-10T06:23:58;5.28;;;2.10;;
71104;SDS011;58760;48.716;8.962;2022-07-10T06:26:23;4.45;;;1.80;;
71104;SDS011;58760;48.716;8.962;2022-07-10T06:28:49;6.32;;;1.85;;
71104;SDS011;58760;48.716;8.962;2022-07-10T06:31:15;9.05;;;1.90;;
71104;SDS011;58760;48.716;8.962;2022-07-10T06:33:40;9.85;;;2.15;;
71104;SDS011;58760;48.716;8.962;2022-07-10T06:36:06;5.90;;;2.15;;
71104;SDS011;58760;48.716;8.962;2022-07-10T06:38:32;7.75;;;2.10;;
71104;SDS011;58760;48.716;8.962;2022-07-10T06:40:57;4.78;;;1.80;;
71104;SDS011;58760;48.716;8.962;2022-07-10T06:43:22;4.72;;;2.13;;
71104;SDS011;58760;48.716;8.962;2022-07-10T06:45:48;8.00;;;1.88;;
71104;SDS011;58760;48.716;8.962;2022-07-10T06:48:13;9.65;;;1.88;;
71104;SDS011;58760;48.716;8.962;2022-07-10T06:50:39;8.48;;;2.00;;
71104;SDS011;58760;48.716;8.962;2022-07-10T06:53:05;7.10;;;2.08;;
71104;SDS011;58760;48.716;8.962;2022-07-10T06:55:31;7.35;;;2.10;;
71104;SDS011;58760;48.716;8.962;2022-07-10T06:57:57;5.32;;;1.75;;
71104;SDS011;58760;48.716;8.962;2022-07-10T07:00:23;6.18;;;1.60;;
71104;SDS011;58760;48.716;8.962;2022-07-10T07:02:49;5.47;;;1.70;;
71104;SDS011;58760;48.716;8.962;2022-07-10T07:05:14;7.28;;;1.70;;
71104;SDS011;58760;48.716;8.962;2022-07-10T07:07:40;5.38;;;1.30;;
71104;SDS011;58760;48.716;8.962;2022-07-10T07:10:06;5.07;;;1.52;;
71104;SDS011;58760;48.716;8.962;2022-07-10T07:12:32;6.63;;;1.20;;
71104;SDS011;58760;48.716;8.962;2022-07-10T07:14:58;8.32;;;1.88;;
71104;SDS011;58760;48.716;8.962;2022-07-10T07:17:23;4.55;;;1.20;;
71104;SDS011;58760;48.716;8.962;2022-07-10T07:19:50;4.53;;;1.25;;
71104;SDS011;58760;48.716;8.962;2022-07-10T07:22:35;7.07;;;1.50;;
71104;SDS011;58760;48.716;8.962;2022-07-10T07:25:34;4.57;;;1.15;;
71104;SDS011;58760;48.716;8.962;2022-07-10T07:27:59;6.47;;;1.52;;
71104;SDS011;58760;48.716;8.962;2022-07-10T07:30:24;6.30;;;1.48;;
71104;SDS011;58760;48.716;8.962;2022-07-10T07:32:50;3.85;;;1.30;;
71104;SDS011;58760;48.716;8.962;2022-07-10T07:35:15;6.70;;;1.80;;
71104;SDS011;58760;48.716;8.962;2022-07-10T07:37:43;5.72;;;1.38;;
71104;SDS011;58760;48.716;8.962;2022-07-10T07:40:11;5.70;;;1.42;;
71104;SDS011;58760;48.716;8.962;2022-07-10T07:42:38;10.93;;;2.17;;
71104;SDS011;58760;48.716;8.962;2022-07-10T07:45:04;6.07;;;1.25;;
71104;SDS011;58760;48.716;8.962;2022-07-10T07:47:31;6.05;;;1.17;;
71104;SDS011;58760;48.716;8.962;2022-07-10T07:50:07;6.38;;;1.40;;
71104;SDS011;58760;48.716;8.962;2022-07-10T07:52:32;6.35;;;1.35;;
71104;SDS011;58760;48.716;8.962;2022-07-10T07:55:00;4.70;;;1.20;;
71104;SDS011;58760;48.716;8.962;2022-07-10T07:57:25;5.28;;;1.30;;
71104;SDS011;58760;48.716;8.962;2022-07-10T07:59:51;5.40;;;1.30;;
71104;SDS011;58760;48.716;8.962;2022-07-10T08:02:16;5.35;;;1.33;;
71104;SDS011;58760;48.716;8.962;2022-07-10T08:04:42;3.38;;;1.10;;
71104;SDS011;58760;48.716;8.962;2022-07-10T08:07:07;5.20;;;1.40;;
71104;SDS011;58760;48.716;8.962;2022-07-10T08:09:32;6.47;;;1.20;;
71104;SDS011;58760;48.716;8.962;2022-07-10T08:11:58;4.78;;;1.30;;
71104;SDS011;58760;48.716;8.962;2022-07-10T08:14:23;3.78;;;1.15;;
71104;SDS011;58760;48.716;8.962;2022-07-10T08:16:48;5.50;;;1.30;;
71104;SDS011;58760;48.716;8.962;2022-07-10T08:19:15;3.55;;;1.10;;
71104;SDS011;58760;48.716;8.962;2022-07-10T08:21:41;3.83;;;1.20;;
71104;SDS011;58760;48.716;8.962;2022-07-10T08:24:06;4.63;;;1.23;;
71104;SDS011;58760;48.716;8.962;2022-07-10T08:26:32;4.93;;;1.38;;
71104;SDS011;58760;48.716;8.962;2022-07-10T08:28:57;6.70;;;1.70;;
71104;SDS011;58760;48.716;8.962;2022-07-10T08:31:23;4.07;;;1.30;;
71104;SDS011;58760;48.716;8.962;2022-07-10T08:33:48;4.18;;;1.20;;
71104;SDS011;58760;48.716;8.962;2022-07-10T08:36:14;4.85;;;1.30;;
71104;SDS011;58760;48.716;8.962;2022-07-10T08:38:39;5.57;;;1.40;;
71104;SDS011;58760;48.716;8.962;2022-07-10T08:41:05;7.13;;;1.40;;
71104;SDS011;58760;48.716;8.962;2022-07-10T08:43:31;5.22;;;1.20;;
71104;SDS011;58760;48.716;8.962;2022-07-10T08:45:56;4.72;;;1.23;;
71104;SDS011;58760;48.716;8.962;2022-07-10T08:48:23;3.25;;;1.33;;
71104;SDS011;58760;48.716;8.962;2022-07-10T08:50:52;4.80;;;1.30;;
71104;SDS011;58760;48.716;8.962;2022-07-10T08:53:28;10.15;;;1.77;;
71104;SDS011;58760;48.716;8.962;2022-07-10T08:55:56;4.15;;;1.25;;
71104;SDS011;58760;48.716;8.962;2022-07-10T09:00:48;6.60;;;1.30;;
71104;SDS011;58760;48.716;8.962;2022-07-10T09:03:13;4.60;;;1.60;;
71104;SDS011;58760;48.716;8.962;2022-07-10T09:05:38;5.07;;;1.38;;
71104;SDS011;58760;48.716;8.962;2022-07-10T09:08:04;5.05;;;1.70;;
71104;SDS011;58760;48.716;8.962;2022-07-10T09:10:45;3.40;;;1.20;;
71104;SDS011;58760;48.716;8.962;2022-07-10T09:13:11;5.47;;;1.30;;
71104;SDS011;58760;48.716;8.962;2022-07-10T09:15:36;5.10;;;1.60;;
71104;SDS011;58760;48.716;8.962;2022-07-10T09:18:02;4.97;;;1.63;;
71104;SDS011;58760;48.716;8.962;2022-07-10T09:20:32;6.90;;;1.73;;
71104;SDS011;58760;48.716;8.962;2022-07-10T09:22:58;5.35;;;1.50;;
71104;SDS011;58760;48.716;8.962;2022-07-10T09:25:31;7.20;;;1.85;;
71104;SDS011;58760;48.716;8.962;2022-07-10T09:30:35;7.53;;;2.40;;
71104;SDS011;58760;48.716;8.962;2022-07-10T09:33:23;6.55;;;1.63;;
71104;SDS011;58760;48.716;8.962;2022-07-10T09:36:01;5.97;;;1.77;;
71104;SDS011;58760;48.716;8.962;2022-07-10T09:41:12;7.47;;;1.58;;
71104;SDS011;58760;48.716;8.962;2022-07-10T09:43:43;6.57;;;1.48;;
71104;SDS011;58760;48.716;8.962;2022-07-10T09:46:12;4.75;;;1.52;;
71104;SDS011;58760;48.716;8.962;2022-07-10T09:48:38;4.18;;;1.50;;
71104;SDS011;58760;48.716;8.962;2022-07-10T09:51:07;5.80;;;1.80;;
71104;SDS011;58760;48.716;8.962;2022-07-10T09:53:45;5.78;;;1.63;;
71104;SDS011;58760;48.716;8.962;2022-07-10T09:56:12;5.55;;;1.80;;
71104;SDS011;58760;48.716;8.962;2022-07-10T09:58:38;8.55;;;1.85;;
71104;SDS011;58760;48.716;8.962;2022-07-10T10:01:08;7.60;;;1.70;;
71104;SDS011;58760;48.716;8.962;2022-07-10T10:03:37;5.70;;;1.63;;
71104;SDS011;58760;48.716;8.962;2022-07-10T10:06:16;7.32;;;1.90;;
71104;SDS011;58760;48.716;8.962;2022-07-10T10:11:26;6.30;;;1.60;;
71104;SDS011;58760;48.716;8.962;2022-07-10T10:13:52;4.57;;;1.42;;
71104;SDS011;58760;48.716;8.962;2022-07-10T10:16:19;3.67;;;1.17;;
71104;SDS011;58760;48.716;8.962;2022-07-10T10:18:45;7.88;;;1.75;;
71104;SDS011;58760;48.716;8.962;2022-07-10T10:21:37;4.82;;;1.40;;
71104;SDS011;58760;48.716;8.962;2022-07-10T10:24:04;5.50;;;1.30;;
71104;SDS011;58760;48.716;8.962;2022-07-10T10:26:30;5.68;;;1.35;;
71104;SDS011;58760;48.716;8.962;2022-07-10T10:28:56;4.30;;;1.40;;
71104;SDS011;58760;48.716;8.962;2022-07-10T10:31:24;6.72;;;1.45;;
71104;SDS011;58760;48.716;8.962;2022-07-10T10:33:53;5.07;;;1.67;;
71104;SDS011;58760;48.716;8.962;2022-07-10T10:39:09;5.53;;;1.70;;
71104;SDS011;58760;48.716;8.962;2022-07-10T10:41:42;7.30;;;1.80;;
71104;SDS011;58760;48.716;8.962;2022-07-10T10:49:26;6.95;;;1.40;;
71104;SDS011;58760;48.716;8.962;2022-07-10T10:52:18;4.57;;;1.50;;
71104;SDS011;58760;48.716;8.962;2022-07-10T10:59:56;4.47;;;1.10;;
71104;SDS011;58760;48.716;8.962;2022-07-10T11:02:26;3.03;;;1.30;;
71104;SDS011;58760;48.716;8.962;2022-07-10T11:10:39;4.40;;;1.20;;
71104;SDS011;58760;48.716;8.962;2022-07-10T11:13:17;6.78;;;1.48;;
71104;SDS011;58760;48.716;8.962;2022-07-10T11:18:14;5.82;;;1.33;;
71104;SDS011;58760;48.716;8.962;2022-07-10T11:20:44;5.65;;;1.40;;
71104;SDS011;58760;48.716;8.962;2022-07-10T11:29:01;6.63;;;1.05;;
71104;SDS011;58760;48.716;8.962;2022-07-10T11:31:30;6.25;;;1.10;;
71104;SDS011;58760;48.716;8.962;2022-07-10T11:33:59;4.30;;;1.00;;
71104;SDS011;58760;48.716;8.962;2022-07-10T11:36:25;4.85;;;1.27;;
71104;SDS011;58760;48.716;8.962;2022-07-10T11:38:56;2.92;;;0.80;;
71104;SDS011;58760;48.716;8.962;2022-07-10T11:41:25;4.32;;;1.30;;
71104;SDS011;58760;48.716;8.962;2022-07-10T11:43:54;3.30;;;1.00;;
71104;SDS011;58760;48.716;8.962;2022-07-10T11:46:26;5.25;;;1.20;;
71104;SDS011;58760;48.716;8.962;2022-07-10T11:48:53;4.55;;;1.17;;
71104;SDS011;58760;48.716;8.962;2022-07-10T11:54:07;6.38;;;1.10;;
71104;SDS011;58760;48.716;8.962;2022-07-10T11:56:41;4.65;;;1.25;;
71104;SDS011;58760;48.716;8.962;2022-07-10T11:59:12;3.50;;;0.85;;
71104;SDS011;58760;48.716;8.962;2022-07-10T12:01:45;4.68;;;1.05;;
71104;SDS011;58760;48.716;8.962;2022-07-10T12:04:12;6.47;;;0.90;;
71104;SDS011;58760;48.716;8.962;2022-07-10T12:06:40;3.50;;;1.00;;
71104;SDS011;58760;48.716;8.962;2022-07-10T12:09:08;2.72;;;1.00;;
71104;SDS011;58760;48.716;8.962;2022-07-10T12:11:35;4.68;;;1.00;;
71104;SDS011;58760;48.716;8.962;2022-07-10T12:14:12;4.28;;;1.13;;
71104;SDS011;58760;48.716;8.962;2022-07-10T12:16:42;4.40;;;1.13;;
71104;SDS011;58760;48.716;8.962;2022-07-10T12:19:09;3.45;;;1.10;;
71104;SDS011;58760;48.716;8.962;2022-07-10T12:21:38;4.47;;;0.90;;
71104;SDS011;58760;48.716;8.962;2022-07-10T12:24:05;3.90;;;1.08;;
71104;SDS011;58760;48.716;8.962;2022-07-10T12:26:33;3.40;;;0.90;;
71104;SDS011;58760;48.716;8.962;2022-07-10T12:29:21;3.22;;;1.02;;
71104;SDS011;58760;48.716;8.962;2022-07-10T12:34:14;3.45;;;1.00;;
71104;SDS011;58760;48.716;8.962;2022-07-10T12:36:48;5.93;;;1.10;;
71104;SDS011;58760;48.716;8.962;2022-07-10T12:39:16;2.92;;;1.00;;
71104;SDS011;58760;48.716;8.962;2022-07-10T12:41:55;4.13;;;0.85;;
71104;SDS011;58760;48.716;8.962;2022-07-10T12:44:31;3.15;;;0.75;;
71104;SDS011;58760;48.716;8.962;2022-07-10T12:47:05;4.60;;;1.00;;
71104;SDS011;58760;48.716;8.962;2022-07-10T12:49:56;4.35;;;0.80;;
71104;SDS011;58760;48.716;8.962;2022-07-10T12:52:26;4.93;;;0.93;;
71104;SDS011;58760;48.716;8.962;2022-07-10T12:55:16;6.10;;;0.90;;
71104;SDS011;58760;48.716;8.962;2022-07-10T12:57:46;4.35;;;0.95;;
71104;SDS011;58760;48.716;8.962;2022-07-10T13:00:16;3.15;;;0.88;;
71104;SDS011;58760;48.716;8.962;2022-07-10T13:02:47;4.90;;;1.05;;
71104;SDS011;58760;48.716;8.962;2022-07-10T13:08:17;3.97;;;0.80;;
71104;SDS011;58760;48.716;8.962;2022-07-10T13:10:54;4.05;;;1.00;;
71104;SDS011;58760;48.716;8.962;2022-07-10T13:13:20;4.95;;;0.90;;
71104;SDS011;58760;48.716;8.962;2022-07-10T13:15:46;5.72;;;1.08;;
71104;SDS011;58760;48.716;8.962;2022-07-10T13:18:15;2.78;;;0.80;;
71104;SDS011;58760;48.716;8.962;2022-07-10T13:20:48;4.18;;;1.00;;
71104;SDS011;58760;48.716;8.962;2022-07-10T13:23:15;4.05;;;0.88;;
71104;SDS011;58760;48.716;8.962;2022-07-10T13:25:42;2.45;;;0.43;;
71104;SDS011;58760;48.716;8.962;2022-07-10T13:28:08;2.22;;;0.70;;
71104;SDS011;58760;48.716;8.962;2022-07-10T13:30:35;2.92;;;0.88;;
71104;SDS011;58760;48.716;8.962;2022-07-10T13:33:00;3.90;;;0.80;;
71104;SDS011;58760;48.716;8.962;2022-07-10T13:35:29;3.10;;;0.70;;
71104;SDS011;58760;48.716;8.962;2022-07-10T13:37:56;4.35;;;1.00;;
71104;SDS011;58760;48.716;8.962;2022-07-10T13:40:25;4.97;;;0.93;;
71104;SDS011;58760;48.716;8.962;2022-07-10T13:42:52;7.05;;;1.17;;
71104;SDS011;58760;48.716;8.962;2022-07-10T13:45:18;9.13;;;0.82;;
71104;SDS011;58760;48.716;8.962;2022-07-10T13:47:44;3.08;;;0.90;;
71104;SDS011;58760;48.716;8.962;2022-07-10T13:50:10;3.97;;;0.95;;
71104;SDS011;58760;48.716;8.962;2022-07-10T13:52:35;5.40;;;0.90;;
71104;SDS011;58760;48.716;8.962;2022-07-10T13:55:00;5.32;;;1.00;;
71104;SDS011;58760;48.716;8.962;2022-07-10T13:57:26;4.35;;;1.05;;
71104;SDS011;58760;48.716;8.962;2022-07-10T13:59:54;6.30;;;1.00;;
71104;SDS011;58760;48.716;8.962;2022-07-10T14:02:20;7.22;;;1.10;;
71104;SDS011;58760;48.716;8.962;2022-07-10T14:04:45;4.63;;;1.08;;
71104;SDS011;58760;48.716;8.962;2022-07-10T14:07:11;4.53;;;1.02;;
71104;SDS011;58760;48.716;8.962;2022-07-10T14:09:36;4.30;;;1.10;;
71104;SDS011;58760;48.716;8.962;2022-07-10T14:12:02;3.42;;;0.90;;
71104;SDS011;58760;48.716;8.962;2022-07-10T14:14:27;5.18;;;1.10;;
71104;SDS011;58760;48.716;8.962;2022-07-10T14:16:53;5.30;;;1.13;;
71104;SDS011;58760;48.716;8.962;2022-07-10T14:19:18;4.05;;;0.98;;
71104;SDS011;58760;48.716;8.962;2022-07-10T14:21:43;5.05;;;1.10;;
71104;SDS011;58760;48.716;8.962;2022-07-10T14:24:09;3.15;;;0.93;;
71104;SDS011;58760;48.716;8.962;2022-07-10T14:26:34;5.07;;;1.10;;
71104;SDS011;58760;48.716;8.962;2022-07-10T14:29:01;5.15;;;1.00;;
71104;SDS011;58760;48.716;8.962;2022-07-10T14:31:28;4.97;;;1.00;;
71104;SDS011;58760;48.716;8.962;2022-07-10T14:33:54;3.53;;;1.10;;
71104;SDS011;58760;48.716;8.962;2022-07-10T14:36:20;3.25;;;0.75;;
71104;SDS011;58760;48.716;8.962;2022-07-10T14:38:47;7.20;;;1.02;;
71104;SDS011;58760;48.716;8.962;2022-07-10T14:41:13;4.57;;;0.93;;
71104;SDS011;58760;48.716;8.962;2022-07-10T14:43:38;2.47;;;0.75;;
71104;SDS011;58760;48.716;8.962;2022-07-10T14:46:03;6.15;;;1.00;;
71104;SDS011;58760;48.716;8.962;2022-07-10T14:48:30;6.50;;;1.27;;
71104;SDS011;58760;48.716;8.962;2022-07-10T14:50:56;6.65;;;0.70;;
71104;SDS011;58760;48.716;8.962;2022-07-10T14:53:25;4.30;;;0.95;;
71104;SDS011;58760;48.716;8.962;2022-07-10T14:55:50;3.78;;;0.90;;
71104;SDS011;58760;48.716;8.962;2022-07-10T14:58:16;4.97;;;0.82;;
71104;SDS011;58760;48.716;8.962;2022-07-10T15:00:41;5.45;;;0.90;;
71104;SDS011;58760;48.716;8.962;2022-07-10T15:03:07;3.45;;;1.13;;
71104;SDS011;58760;48.716;8.962;2022-07-10T15:05:33;3.72;;;1.02;;
71104;SDS011;58760;48.716;8.962;2022-07-10T15:07:58;3.72;;;0.90;;
71104;SDS011;58760;48.716;8.962;2022-07-10T15:10:25;5.72;;;1.00;;
71104;SDS011;58760;48.716;8.962;2022-07-10T15:12:51;3.15;;;0.90;;
71104;SDS011;58760;48.716;8.962;2022-07-10T15:15:16;4.38;;;1.00;;
71104;SDS011;58760;48.716;8.962;2022-07-10T15:17:42;2.22;;;0.70;;
71104;SDS011;58760;48.716;8.962;2022-07-10T15:20:08;4.80;;;0.95;;
71104;SDS011;58760;48.716;8.962;2022-07-10T15:22:34;2.65;;;0.68;;
71104;SDS011;58760;48.716;8.962;2022-07-10T15:25:00;3.28;;;0.90;;
71104;SDS011;58760;48.716;8.962;2022-07-10T15:27:26;2.30;;;0.75;;
71104;SDS011;58760;48.716;8.962;2022-07-10T15:29:54;11.05;;;4.45;;
71104;SDS011;58760;48.716;8.962;2022-07-10T15:32:20;3.00;;;0.90;;